Погода Елмановона неделю

Смоленская область, Россия

23 - 29 июля
  • 23июля
    Сегодня
    +10°
    +23°
    Облачно с прояснениями
    ВремяПогодаТемператураВлажностьДавлениеВетер, м/сВероятность осадков
    00:00Ясно и безоблачно+15°C90 %742 мм2.7 м/с3 %
    03:00Ясно и безоблачно+14°C89 %742 мм2.3 м/с2 %
    06:00Ясно и безоблачно+14°C86 %743 мм3.0 м/с2 %
    09:00Ясно и безоблачно+18°C78 %743 мм2.8 м/с1 %
    12:00Облачно с прояснениями+21°C56 %743 мм3.4 м/с8 %
    15:00Облачно с прояснениями+22°C55 %743 мм3.3 м/с20 %
    18:00Практически безоблачно+22°C56 %743 мм3.2 м/с17 %
    21:00Ясно и безоблачно+17°C68 %743 мм2.1 м/с2 %
  • 24июля
    Среда
    +12°
    +24°
    Небольшая облачность
    ВремяПогодаТемператураВлажностьДавлениеВетер, м/сВероятность осадков
    00:00Ясно и безоблачно+13°C77 %743 мм2.0 м/с2 %
    03:00Ясно и безоблачно+11°C84 %743 мм1.8 м/с2 %
    06:00Ясно и безоблачно+12°C83 %743 мм1.5 м/с2 %
    09:00Ясно и безоблачно+19°C67 %743 мм1.8 м/с2 %
    12:00Ясно и безоблачно+22°C50 %743 мм2.6 м/с2 %
    15:00Небольшая облачность+24°C41 %743 мм1.5 м/с2 %
    18:00Ясно и безоблачно+23°C46 %742 мм2.0 м/с2 %
    21:00Ясно и безоблачно+18°C68 %741 мм2.0 м/с2 %
  • 25июля
    Четверг
    +13°
    +26°
    Практически безоблачно
    ВремяПогодаТемператураВлажностьДавлениеВетер, м/сВероятность осадков
    00:00Ясно и безоблачно+14°C77 %741 мм2.2 м/с2 %
    03:00Практически безоблачно+13°C77 %741 мм1.9 м/с2 %
    06:00Практически безоблачно+13°C76 %740 мм2.2 м/с2 %
    09:00Ясно и безоблачно+20°C68 %741 мм1.4 м/с2 %
    12:00Ясно и безоблачно+24°C51 %740 мм2.7 м/с14 %
    15:00Практически безоблачно+25°C48 %740 мм2.5 м/с29 %
    18:00Практически безоблачно+23°C58 %740 мм1.4 м/с45 %
    21:00Ясно и безоблачно+19°C81 %740 мм1.7 м/с8 %
  • 26июля
    Пятница
    +10°
    +24°
    Ясно и безоблачно
    ВремяПогодаТемператураВлажностьДавлениеВетер, м/сВероятность осадков
    00:00Ясно и безоблачно+15°C91 %740 мм2.2 м/с2 %
    03:00Ясно и безоблачно+14°C96 %740 мм1.6 м/с2 %
    06:00Ясно и безоблачно+14°C96 %741 мм2.2 м/с2 %
    09:00Ясно и безоблачно+19°C75 %742 мм1.9 м/с2 %
    12:00Ясно и безоблачно+22°C51 %742 мм2.6 м/с24 %
    15:00Ясно и безоблачно+23°C44 %742 мм2.2 м/с14 %
    18:00Ясно и безоблачно+23°C44 %743 мм1.3 м/с17 %
    21:00Ясно и безоблачно+19°C59 %743 мм0.7 м/с7 %
  • 27июля
    Суббота
    +14°
    +26°
    Пасмурно, сплошная облачность
    ВремяПогодаТемператураВлажностьДавлениеВетер, м/сВероятность осадков
    00:00Ясно и безоблачно+13°C80 %744 мм2.2 м/с2 %
    03:00Ясно и безоблачно+11°C84 %744 мм1.9 м/с4 %
    06:00Ясно и безоблачно+14°C77 %744 мм1.9 м/с2 %
    09:00Ясно и безоблачно+20°C60 %745 мм1.7 м/с4 %
    12:00Ясно и безоблачно+25°C51 %745 мм2.8 м/с15 %
    15:00Пасмурно, сплошная облачность+25°C50 %745 мм2.8 м/с20 %
    18:00Небольшая облачность, возможен дождь с грозой+23°C65 %745 мм2.5 м/с34 %
    21:00Ясно и безоблачно+20°C81 %745 мм2.1 м/с6 %
Мы используем cookies
Соглашаюсь